sensor_id;sensor_type;location;lat;lon;timestamp;pressure;altitude;pressure_sealevel;temperature;humidity
39593;BME280;25286;48.870;9.084;2022-07-01T00:00:01;98059.94;;;14.86;nan
39593;BME280;25286;48.870;9.084;2022-07-01T00:02:26;98073.25;;;15.09;nan
39593;BME280;25286;48.870;9.084;2022-07-01T00:04:52;98095.00;;;14.80;nan
39593;BME280;25286;48.870;9.084;2022-07-01T00:07:18;98091.56;;;15.41;nan
39593;BME280;25286;48.870;9.084;2022-07-01T00:09:43;98090.19;;;15.38;nan
39593;BME280;25286;48.870;9.084;2022-07-01T00:12:09;98098.75;;;15.42;nan
39593;BME280;25286;48.870;9.084;2022-07-01T00:14:35;98090.75;;;15.35;nan
39593;BME280;25286;48.870;9.084;2022-07-01T00:17:01;98086.88;;;15.31;nan
39593;BME280;25286;48.870;9.084;2022-07-01T00:19:27;98090.06;;;14.97;nan
39593;BME280;25286;48.870;9.084;2022-07-01T00:21:53;98081.25;;;15.00;nan
39593;BME280;25286;48.870;9.084;2022-07-01T00:24:19;98080.22;;;15.22;nan
39593;BME280;25286;48.870;9.084;2022-07-01T00:26:45;98086.16;;;14.83;nan
39593;BME280;25286;48.870;9.084;2022-07-01T00:29:10;98104.78;;;15.13;nan
39593;BME280;25286;48.870;9.084;2022-07-01T00:31:36;98103.31;;;14.90;nan
39593;BME280;25286;48.870;9.084;2022-07-01T00:34:02;98109.28;;;14.62;nan
39593;BME280;25286;48.870;9.084;2022-07-01T00:36:28;98100.28;;;14.97;nan
39593;BME280;25286;48.870;9.084;2022-07-01T00:38:54;98109.16;;;14.99;nan
39593;BME280;25286;48.870;9.084;2022-07-01T00:41:19;98107.59;;;14.61;nan
39593;BME280;25286;48.870;9.084;2022-07-01T00:43:45;98112.03;;;14.62;nan
39593;BME280;25286;48.870;9.084;2022-07-01T00:46:11;98101.53;;;14.64;nan
39593;BME280;25286;48.870;9.084;2022-07-01T00:48:37;98095.53;;;14.82;nan
39593;BME280;25286;48.870;9.084;2022-07-01T00:51:03;98084.41;;;14.62;nan
39593;BME280;25286;48.870;9.084;2022-07-01T00:53:28;98085.31;;;14.78;nan
39593;BME280;25286;48.870;9.084;2022-07-01T00:55:55;98078.97;;;14.82;nan
39593;BME280;25286;48.870;9.084;2022-07-01T00:58:21;98091.16;;;14.96;nan
39593;BME280;25286;48.870;9.084;2022-07-01T01:00:47;98096.88;;;14.74;nan
39593;BME280;25286;48.870;9.084;2022-07-01T01:03:12;98091.63;;;14.26;nan
39593;BME280;25286;48.870;9.084;2022-07-01T01:05:38;98086.81;;;14.11;nan
39593;BME280;25286;48.870;9.084;2022-07-01T01:08:06;98075.47;;;14.44;nan
39593;BME280;25286;48.870;9.084;2022-07-01T01:10:33;98069.53;;;14.68;nan
39593;BME280;25286;48.870;9.084;2022-07-01T01:13:00;98070.00;;;14.55;nan
39593;BME280;25286;48.870;9.084;2022-07-01T01:15:26;98072.25;;;14.58;nan
39593;BME280;25286;48.870;9.084;2022-07-01T01:17:53;98061.19;;;14.58;nan
39593;BME280;25286;48.870;9.084;2022-07-01T01:20:19;98073.88;;;14.54;nan
39593;BME280;25286;48.870;9.084;2022-07-01T01:22:46;98071.66;;;14.56;nan
39593;BME280;25286;48.870;9.084;2022-07-01T01:25:12;98057.84;;;14.51;nan
39593;BME280;25286;48.870;9.084;2022-07-01T01:27:38;98056.50;;;14.58;nan
39593;BME280;25286;48.870;9.084;2022-07-01T01:30:08;98054.41;;;14.38;nan
39593;BME280;25286;48.870;9.084;2022-07-01T01:32:35;98050.41;;;14.61;nan
39593;BME280;25286;48.870;9.084;2022-07-01T01:35:02;98052.53;;;14.44;nan
39593;BME280;25286;48.870;9.084;2022-07-01T01:37:27;98037.97;;;14.54;nan
39593;BME280;25286;48.870;9.084;2022-07-01T01:39:54;98046.00;;;14.60;nan
39593;BME280;25286;48.870;9.084;2022-07-01T01:42:19;98048.44;;;14.52;nan
39593;BME280;25286;48.870;9.084;2022-07-01T01:44:45;98050.47;;;14.66;nan
39593;BME280;25286;48.870;9.084;2022-07-01T01:47:11;98053.31;;;14.34;nan
39593;BME280;25286;48.870;9.084;2022-07-01T01:49:36;98055.72;;;14.73;nan
39593;BME280;25286;48.870;9.084;2022-07-01T01:52:03;98043.50;;;14.54;nan
39593;BME280;25286;48.870;9.084;2022-07-01T01:54:28;98048.00;;;14.75;nan
39593;BME280;25286;48.870;9.084;2022-07-01T01:56:54;98026.75;;;14.81;nan
39593;BME280;25286;48.870;9.084;2022-07-01T01:59:20;98024.72;;;14.51;nan
39593;BME280;25286;48.870;9.084;2022-07-01T02:01:45;98023.22;;;14.33;nan
39593;BME280;25286;48.870;9.084;2022-07-01T02:04:11;98011.38;;;14.42;nan
39593;BME280;25286;48.870;9.084;2022-07-01T02:06:37;97993.66;;;14.28;nan
39593;BME280;25286;48.870;9.084;2022-07-01T02:09:03;97988.44;;;14.37;nan
39593;BME280;25286;48.870;9.084;2022-07-01T02:11:28;97992.63;;;14.44;nan
39593;BME280;25286;48.870;9.084;2022-07-01T02:13:54;97994.56;;;14.39;nan
39593;BME280;25286;48.870;9.084;2022-07-01T02:16:20;97992.84;;;14.33;nan
39593;BME280;25286;48.870;9.084;2022-07-01T02:18:46;97975.00;;;14.51;nan
39593;BME280;25286;48.870;9.084;2022-07-01T02:21:11;97976.59;;;14.36;nan
39593;BME280;25286;48.870;9.084;2022-07-01T02:23:37;97969.13;;;14.32;nan
39593;BME280;25286;48.870;9.084;2022-07-01T02:26:03;97971.28;;;14.24;nan
39593;BME280;25286;48.870;9.084;2022-07-01T02:28:28;97969.31;;;14.20;nan
39593;BME280;25286;48.870;9.084;2022-07-01T02:30:54;97970.22;;;14.31;nan
39593;BME280;25286;48.870;9.084;2022-07-01T02:33:20;97973.28;;;14.39;nan
39593;BME280;25286;48.870;9.084;2022-07-01T02:35:47;97971.59;;;14.38;nan
39593;BME280;25286;48.870;9.084;2022-07-01T02:38:12;97979.31;;;14.31;nan
39593;BME280;25286;48.870;9.084;2022-07-01T02:40:38;97973.50;;;14.22;nan
39593;BME280;25286;48.870;9.084;2022-07-01T02:43:06;97970.47;;;14.29;nan
39593;BME280;25286;48.870;9.084;2022-07-01T02:45:32;97982.84;;;14.16;nan
39593;BME280;25286;48.870;9.084;2022-07-01T02:47:57;97983.06;;;14.05;nan
39593;BME280;25286;48.870;9.084;2022-07-01T02:50:23;97993.00;;;14.11;nan
39593;BME280;25286;48.870;9.084;2022-07-01T02:52:49;97985.31;;;14.13;nan
39593;BME280;25286;48.870;9.084;2022-07-01T02:55:15;97980.31;;;14.10;nan
39593;BME280;25286;48.870;9.084;2022-07-01T02:57:41;97995.53;;;14.12;nan
39593;BME280;25286;48.870;9.084;2022-07-01T03:00:10;97996.13;;;14.24;nan
39593;BME280;25286;48.870;9.084;2022-07-01T03:02:36;97996.56;;;14.06;nan
39593;BME280;25286;48.870;9.084;2022-07-01T03:05:03;97998.56;;;14.16;nan
39593;BME280;25286;48.870;9.084;2022-07-01T03:07:29;97998.41;;;13.90;nan
39593;BME280;25286;48.870;9.084;2022-07-01T03:09:55;97986.38;;;14.07;nan
39593;BME280;25286;48.870;9.084;2022-07-01T03:12:21;97988.03;;;14.03;nan
39593;BME280;25286;48.870;9.084;2022-07-01T03:15:04;97997.69;;;14.10;nan
39593;BME280;25286;48.870;9.084;2022-07-01T03:17:31;98005.44;;;14.13;nan
39593;BME280;25286;48.870;9.084;2022-07-01T03:19:57;98007.69;;;14.16;nan
39593;BME280;25286;48.870;9.084;2022-07-01T03:22:27;98005.16;;;13.67;nan
39593;BME280;25286;48.870;9.084;2022-07-01T03:24:53;98010.56;;;13.89;nan
39593;BME280;25286;48.870;9.084;2022-07-01T03:27:20;98021.38;;;14.01;nan
39593;BME280;25286;48.870;9.084;2022-07-01T03:29:46;98010.38;;;14.06;nan
39593;BME280;25286;48.870;9.084;2022-07-01T03:32:12;98002.88;;;14.02;nan
39593;BME280;25286;48.870;9.084;2022-07-01T03:34:39;98007.88;;;14.05;nan
39593;BME280;25286;48.870;9.084;2022-07-01T03:37:05;98031.72;;;14.21;nan
39593;BME280;25286;48.870;9.084;2022-07-01T03:39:32;98040.03;;;14.26;nan
39593;BME280;25286;48.870;9.084;2022-07-01T03:41:58;98045.84;;;13.55;nan
39593;BME280;25286;48.870;9.084;2022-07-01T03:44:24;98057.38;;;14.21;nan
39593;BME280;25286;48.870;9.084;2022-07-01T03:46:50;98062.34;;;13.82;nan
39593;BME280;25286;48.870;9.084;2022-07-01T03:49:16;98061.72;;;14.07;nan
39593;BME280;25286;48.870;9.084;2022-07-01T03:51:41;98063.31;;;13.98;nan
39593;BME280;25286;48.870;9.084;2022-07-01T03:54:07;98078.00;;;14.09;nan
39593;BME280;25286;48.870;9.084;2022-07-01T03:56:51;98077.84;;;13.88;nan
39593;BME280;25286;48.870;9.084;2022-07-01T03:59:17;98090.44;;;14.11;nan
39593;BME280;25286;48.870;9.084;2022-07-01T04:01:42;98099.16;;;13.61;nan
39593;BME280;25286;48.870;9.084;2022-07-01T04:04:08;98112.66;;;13.94;nan
39593;BME280;25286;48.870;9.084;2022-07-01T04:06:34;98115.56;;;14.15;nan
39593;BME280;25286;48.870;9.084;2022-07-01T04:09:01;98111.44;;;14.17;nan
39593;BME280;25286;48.870;9.084;2022-07-01T04:11:26;98113.97;;;14.24;nan
39593;BME280;25286;48.870;9.084;2022-07-01T04:13:52;98118.06;;;14.16;nan
39593;BME280;25286;48.870;9.084;2022-07-01T04:16:19;98123.94;;;14.25;nan
39593;BME280;25286;48.870;9.084;2022-07-01T04:18:48;98135.00;;;13.93;nan
39593;BME280;25286;48.870;9.084;2022-07-01T04:21:14;98148.16;;;14.18;nan
39593;BME280;25286;48.870;9.084;2022-07-01T04:23:59;98157.63;;;13.95;nan
39593;BME280;25286;48.870;9.084;2022-07-01T04:26:25;98155.81;;;14.11;nan
39593;BME280;25286;48.870;9.084;2022-07-01T04:28:54;98164.75;;;14.23;nan
39593;BME280;25286;48.870;9.084;2022-07-01T04:31:20;98171.84;;;13.82;nan
39593;BME280;25286;48.870;9.084;2022-07-01T04:33:48;98162.06;;;13.69;nan
39593;BME280;25286;48.870;9.084;2022-07-01T04:36:14;98166.81;;;14.06;nan
39593;BME280;25286;48.870;9.084;2022-07-01T04:38:40;98173.06;;;14.28;nan
39593;BME280;25286;48.870;9.084;2022-07-01T04:41:06;98171.16;;;14.34;nan
39593;BME280;25286;48.870;9.084;2022-07-01T04:43:50;98174.47;;;14.68;nan
39593;BME280;25286;48.870;9.084;2022-07-01T04:46:16;98172.06;;;14.39;nan
39593;BME280;25286;48.870;9.084;2022-07-01T04:48:41;98178.84;;;14.27;nan
39593;BME280;25286;48.870;9.084;2022-07-01T04:51:07;98186.72;;;14.08;nan
39593;BME280;25286;48.870;9.084;2022-07-01T04:53:33;98173.06;;;13.96;nan
39593;BME280;25286;48.870;9.084;2022-07-01T04:55:58;98181.44;;;14.06;nan
39593;BME280;25286;48.870;9.084;2022-07-01T04:58:24;98178.06;;;14.31;nan
39593;BME280;25286;48.870;9.084;2022-07-01T05:00:51;98169.09;;;14.14;nan
39593;BME280;25286;48.870;9.084;2022-07-01T05:03:17;98173.44;;;14.05;nan
39593;BME280;25286;48.870;9.084;2022-07-01T05:05:43;98169.47;;;13.95;nan
39593;BME280;25286;48.870;9.084;2022-07-01T05:08:08;98168.25;;;13.81;nan
39593;BME280;25286;48.870;9.084;2022-07-01T05:10:34;98172.16;;;13.85;nan
39593;BME280;25286;48.870;9.084;2022-07-01T05:13:00;98180.63;;;14.11;nan
39593;BME280;25286;48.870;9.084;2022-07-01T05:15:26;98186.38;;;14.04;nan
39593;BME280;25286;48.870;9.084;2022-07-01T05:17:51;98196.47;;;14.20;nan
39593;BME280;25286;48.870;9.084;2022-07-01T05:20:36;98189.53;;;13.86;nan
39593;BME280;25286;48.870;9.084;2022-07-01T05:23:20;98179.13;;;13.93;nan
39593;BME280;25286;48.870;9.084;2022-07-01T05:25:47;98192.13;;;13.97;nan
39593;BME280;25286;48.870;9.084;2022-07-01T05:28:13;98185.47;;;13.93;nan
39593;BME280;25286;48.870;9.084;2022-07-01T05:30:38;98182.13;;;13.91;nan
39593;BME280;25286;48.870;9.084;2022-07-01T05:33:04;98183.66;;;13.77;nan
39593;BME280;25286;48.870;9.084;2022-07-01T05:35:30;98184.44;;;13.72;nan
39593;BME280;25286;48.870;9.084;2022-07-01T05:37:56;98173.13;;;13.74;nan
39593;BME280;25286;48.870;9.084;2022-07-01T05:40:22;98190.25;;;13.49;nan
39593;BME280;25286;48.870;9.084;2022-07-01T05:42:48;98184.41;;;13.67;nan
39593;BME280;25286;48.870;9.084;2022-07-01T05:45:14;98178.03;;;13.67;nan
39593;BME280;25286;48.870;9.084;2022-07-01T05:47:39;98186.94;;;13.47;nan
39593;BME280;25286;48.870;9.084;2022-07-01T05:50:06;98181.63;;;13.67;nan
39593;BME280;25286;48.870;9.084;2022-07-01T05:52:32;98187.66;;;13.64;nan
39593;BME280;25286;48.870;9.084;2022-07-01T05:54:58;98185.06;;;13.53;nan
39593;BME280;25286;48.870;9.084;2022-07-01T05:57:23;98180.91;;;13.50;nan
39593;BME280;25286;48.870;9.084;2022-07-01T05:59:49;98182.28;;;13.26;nan
39593;BME280;25286;48.870;9.084;2022-07-01T06:02:15;98187.47;;;13.22;nan
39593;BME280;25286;48.870;9.084;2022-07-01T06:04:41;98197.88;;;13.42;nan
39593;BME280;25286;48.870;9.084;2022-07-01T06:07:09;98204.50;;;13.41;nan
39593;BME280;25286;48.870;9.084;2022-07-01T06:09:38;98194.06;;;13.43;nan
39593;BME280;25286;48.870;9.084;2022-07-01T06:12:04;98195.13;;;13.42;nan
39593;BME280;25286;48.870;9.084;2022-07-01T06:14:30;98203.72;;;13.45;nan
39593;BME280;25286;48.870;9.084;2022-07-01T06:16:56;98218.53;;;13.61;nan
39593;BME280;25286;48.870;9.084;2022-07-01T06:19:22;98219.91;;;13.64;nan
39593;BME280;25286;48.870;9.084;2022-07-01T06:21:48;98220.56;;;13.71;nan
39593;BME280;25286;48.870;9.084;2022-07-01T06:24:13;98228.25;;;13.69;nan
39593;BME280;25286;48.870;9.084;2022-07-01T06:26:39;98224.41;;;13.70;nan
39593;BME280;25286;48.870;9.084;2022-07-01T06:29:05;98221.22;;;13.56;nan
39593;BME280;25286;48.870;9.084;2022-07-01T06:31:31;98227.22;;;13.75;nan
39593;BME280;25286;48.870;9.084;2022-07-01T06:33:59;98233.66;;;13.59;nan
39593;BME280;25286;48.870;9.084;2022-07-01T06:36:25;98233.75;;;13.69;nan
39593;BME280;25286;48.870;9.084;2022-07-01T06:38:51;98228.06;;;13.76;nan
39593;BME280;25286;48.870;9.084;2022-07-01T06:41:17;98241.53;;;13.72;nan
39593;BME280;25286;48.870;9.084;2022-07-01T06:43:52;98235.88;;;13.84;nan
39593;BME280;25286;48.870;9.084;2022-07-01T06:46:19;98234.97;;;13.78;nan
39593;BME280;25286;48.870;9.084;2022-07-01T06:48:45;98233.34;;;13.82;nan
39593;BME280;25286;48.870;9.084;2022-07-01T06:51:10;98234.03;;;13.94;nan
39593;BME280;25286;48.870;9.084;2022-07-01T06:53:36;98238.41;;;13.90;nan
39593;BME280;25286;48.870;9.084;2022-07-01T06:56:02;98240.53;;;13.83;nan
39593;BME280;25286;48.870;9.084;2022-07-01T06:58:28;98236.47;;;13.91;nan
39593;BME280;25286;48.870;9.084;2022-07-01T07:00:53;98250.22;;;13.86;nan
39593;BME280;25286;48.870;9.084;2022-07-01T07:03:19;98253.03;;;13.91;nan
39593;BME280;25286;48.870;9.084;2022-07-01T07:05:45;98246.91;;;13.84;nan
39593;BME280;25286;48.870;9.084;2022-07-01T07:08:11;98252.81;;;13.70;nan
39593;BME280;25286;48.870;9.084;2022-07-01T07:10:37;98254.94;;;13.41;nan
39593;BME280;25286;48.870;9.084;2022-07-01T07:13:02;98262.88;;;13.60;nan
39593;BME280;25286;48.870;9.084;2022-07-01T07:15:28;98257.75;;;13.68;nan
39593;BME280;25286;48.870;9.084;2022-07-01T07:17:54;98260.06;;;13.55;nan
39593;BME280;25286;48.870;9.084;2022-07-01T07:20:25;98256.78;;;13.80;nan
39593;BME280;25286;48.870;9.084;2022-07-01T07:22:52;98273.84;;;14.04;nan
39593;BME280;25286;48.870;9.084;2022-07-01T07:25:18;98270.03;;;14.10;nan
39593;BME280;25286;48.870;9.084;2022-07-01T07:27:43;98278.25;;;14.32;nan
39593;BME280;25286;48.870;9.084;2022-07-01T07:30:17;98270.75;;;14.27;nan
39593;BME280;25286;48.870;9.084;2022-07-01T07:32:43;98270.88;;;14.10;nan
39593;BME280;25286;48.870;9.084;2022-07-01T07:35:09;98277.03;;;14.17;nan
39593;BME280;25286;48.870;9.084;2022-07-01T07:37:35;98292.97;;;14.42;nan
39593;BME280;25286;48.870;9.084;2022-07-01T07:40:01;98291.22;;;14.31;nan
39593;BME280;25286;48.870;9.084;2022-07-01T07:42:29;98292.78;;;13.95;nan
39593;BME280;25286;48.870;9.084;2022-07-01T07:44:55;98291.66;;;14.18;nan
39593;BME280;25286;48.870;9.084;2022-07-01T07:47:21;98278.22;;;14.27;nan
39593;BME280;25286;48.870;9.084;2022-07-01T07:49:47;98269.66;;;14.28;nan
39593;BME280;25286;48.870;9.084;2022-07-01T07:52:12;98261.34;;;14.23;nan
39593;BME280;25286;48.870;9.084;2022-07-01T07:54:38;98265.00;;;14.34;nan
39593;BME280;25286;48.870;9.084;2022-07-01T07:57:05;98263.00;;;14.24;nan
39593;BME280;25286;48.870;9.084;2022-07-01T07:59:32;98277.06;;;14.22;nan
39593;BME280;25286;48.870;9.084;2022-07-01T08:01:57;98269.91;;;14.21;nan
39593;BME280;25286;48.870;9.084;2022-07-01T08:04:23;98280.19;;;14.04;nan
39593;BME280;25286;48.870;9.084;2022-07-01T08:06:49;98279.38;;;14.04;nan
39593;BME280;25286;48.870;9.084;2022-07-01T08:09:14;98285.78;;;14.09;nan
39593;BME280;25286;48.870;9.084;2022-07-01T08:11:40;98288.25;;;14.11;nan
39593;BME280;25286;48.870;9.084;2022-07-01T08:14:06;98293.44;;;14.02;nan
39593;BME280;25286;48.870;9.084;2022-07-01T08:16:32;98295.19;;;14.13;nan
39593;BME280;25286;48.870;9.084;2022-07-01T08:18:57;98300.94;;;14.07;nan
39593;BME280;25286;48.870;9.084;2022-07-01T08:21:23;98312.53;;;14.09;nan
39593;BME280;25286;48.870;9.084;2022-07-01T08:23:49;98309.34;;;14.22;nan
39593;BME280;25286;48.870;9.084;2022-07-01T08:26:14;98303.09;;;14.05;nan
39593;BME280;25286;48.870;9.084;2022-07-01T08:28:42;98315.44;;;14.24;nan
39593;BME280;25286;48.870;9.084;2022-07-01T08:31:08;98319.81;;;14.20;nan
39593;BME280;25286;48.870;9.084;2022-07-01T08:33:34;98320.53;;;14.37;nan
39593;BME280;25286;48.870;9.084;2022-07-01T08:36:00;98316.16;;;14.41;nan
39593;BME280;25286;48.870;9.084;2022-07-01T08:38:25;98321.09;;;14.34;nan
39593;BME280;25286;48.870;9.084;2022-07-01T08:40:51;98323.84;;;14.34;nan
39593;BME280;25286;48.870;9.084;2022-07-01T08:43:17;98330.38;;;14.01;nan
39593;BME280;25286;48.870;9.084;2022-07-01T08:45:43;98332.03;;;14.29;nan
39593;BME280;25286;48.870;9.084;2022-07-01T08:48:08;98343.44;;;14.11;nan
39593;BME280;25286;48.870;9.084;2022-07-01T08:50:39;98341.34;;;14.18;nan
39593;BME280;25286;48.870;9.084;2022-07-01T08:53:06;98354.44;;;14.06;nan
39593;BME280;25286;48.870;9.084;2022-07-01T08:55:32;98350.09;;;13.88;nan
39593;BME280;25286;48.870;9.084;2022-07-01T08:58:19;98354.03;;;14.19;nan
39593;BME280;25286;48.870;9.084;2022-07-01T09:00:45;98355.81;;;14.30;nan
39593;BME280;25286;48.870;9.084;2022-07-01T09:03:10;98356.22;;;14.17;nan
39593;BME280;25286;48.870;9.084;2022-07-01T09:05:36;98356.00;;;14.23;nan
39593;BME280;25286;48.870;9.084;2022-07-01T09:08:05;98358.72;;;14.18;nan
39593;BME280;25286;48.870;9.084;2022-07-01T09:10:32;98355.69;;;14.20;nan
39593;BME280;25286;48.870;9.084;2022-07-01T09:13:11;98358.66;;;14.13;nan
39593;BME280;25286;48.870;9.084;2022-07-01T09:15:39;98355.53;;;14.05;nan
39593;BME280;25286;48.870;9.084;2022-07-01T09:18:09;98346.69;;;14.03;nan
39593;BME280;25286;48.870;9.084;2022-07-01T09:20:37;98332.94;;;14.08;nan
39593;BME280;25286;48.870;9.084;2022-07-01T09:23:11;98322.53;;;14.15;nan
39593;BME280;25286;48.870;9.084;2022-07-01T09:25:43;98302.06;;;14.11;nan
39593;BME280;25286;48.870;9.084;2022-07-01T09:30:40;98331.16;;;14.23;nan
39593;BME280;25286;48.870;9.084;2022-07-01T09:33:11;98342.06;;;14.35;nan
39593;BME280;25286;48.870;9.084;2022-07-01T09:35:37;98354.69;;;14.04;nan
39593;BME280;25286;48.870;9.084;2022-07-01T09:38:05;98366.75;;;14.47;nan
39593;BME280;25286;48.870;9.084;2022-07-01T09:41:05;98360.81;;;14.60;nan
39593;BME280;25286;48.870;9.084;2022-07-01T09:43:37;98359.59;;;14.24;nan
39593;BME280;25286;48.870;9.084;2022-07-01T09:46:07;98358.53;;;14.52;nan
39593;BME280;25286;48.870;9.084;2022-07-01T09:50:59;98346.16;;;14.33;nan
39593;BME280;25286;48.870;9.084;2022-07-01T09:53:25;98354.00;;;14.68;nan
39593;BME280;25286;48.870;9.084;2022-07-01T09:55:53;98348.88;;;14.82;nan
39593;BME280;25286;48.870;9.084;2022-07-01T09:58:19;98342.81;;;14.85;nan
39593;BME280;25286;48.870;9.084;2022-07-01T10:00:45;98354.94;;;14.52;nan
39593;BME280;25286;48.870;9.084;2022-07-01T10:03:11;98352.81;;;14.10;nan
39593;BME280;25286;48.870;9.084;2022-07-01T10:05:56;98355.34;;;14.65;nan
39593;BME280;25286;48.870;9.084;2022-07-01T10:09:01;98365.03;;;15.00;nan
39593;BME280;25286;48.870;9.084;2022-07-01T10:14:13;98359.00;;;15.03;nan
39593;BME280;25286;48.870;9.084;2022-07-01T10:16:39;98353.09;;;15.32;nan
39593;BME280;25286;48.870;9.084;2022-07-01T10:19:28;98367.31;;;15.08;nan
39593;BME280;25286;48.870;9.084;2022-07-01T10:21:59;98367.59;;;15.49;nan
39593;BME280;25286;48.870;9.084;2022-07-01T10:24:25;98365.06;;;15.42;nan
39593;BME280;25286;48.870;9.084;2022-07-01T10:26:52;98377.31;;;15.14;nan
39593;BME280;25286;48.870;9.084;2022-07-01T10:34:38;98370.84;;;15.83;nan
39593;BME280;25286;48.870;9.084;2022-07-01T10:37:09;98379.63;;;15.75;nan
39593;BME280;25286;48.870;9.084;2022-07-01T10:39:56;98379.09;;;15.78;nan
39593;BME280;25286;48.870;9.084;2022-07-01T10:42:33;98391.00;;;15.36;nan
39593;BME280;25286;48.870;9.084;2022-07-01T10:45:00;98385.63;;;15.62;nan
39593;BME280;25286;48.870;9.084;2022-07-01T10:47:27;98388.81;;;15.81;nan
39593;BME280;25286;48.870;9.084;2022-07-01T10:52:18;98405.53;;;15.59;nan
39593;BME280;25286;48.870;9.084;2022-07-01T10:54:46;98411.19;;;15.74;nan
39593;BME280;25286;48.870;9.084;2022-07-01T10:59:55;98409.53;;;15.78;nan
39593;BME280;25286;48.870;9.084;2022-07-01T11:02:27;98404.06;;;15.88;nan
39593;BME280;25286;48.870;9.084;2022-07-01T11:04:58;98405.72;;;15.89;nan
39593;BME280;25286;48.870;9.084;2022-07-01T11:07:28;98410.84;;;16.23;nan
39593;BME280;25286;48.870;9.084;2022-07-01T11:09:55;98405.38;;;16.53;nan
39593;BME280;25286;48.870;9.084;2022-07-01T11:12:22;98406.88;;;15.98;nan
39593;BME280;25286;48.870;9.084;2022-07-01T11:14:51;98404.53;;;16.43;nan
39593;BME280;25286;48.870;9.084;2022-07-01T11:17:18;98398.72;;;16.39;nan
39593;BME280;25286;48.870;9.084;2022-07-01T11:19:51;98385.44;;;16.46;nan
39593;BME280;25286;48.870;9.084;2022-07-01T11:22:26;98405.88;;;16.30;nan
39593;BME280;25286;48.870;9.084;2022-07-01T11:24:56;98394.56;;;16.37;nan
39593;BME280;25286;48.870;9.084;2022-07-01T11:27:22;98388.69;;;16.13;nan
39593;BME280;25286;48.870;9.084;2022-07-01T11:29:53;98394.06;;;15.82;nan
39593;BME280;25286;48.870;9.084;2022-07-01T11:32:30;98401.78;;;15.75;nan
39593;BME280;25286;48.870;9.084;2022-07-01T11:34:56;98398.16;;;15.69;nan
39593;BME280;25286;48.870;9.084;2022-07-01T11:37:22;98397.28;;;16.21;nan
39593;BME280;25286;48.870;9.084;2022-07-01T11:40:12;98404.91;;;15.94;nan
39593;BME280;25286;48.870;9.084;2022-07-01T11:42:39;98400.53;;;16.03;nan
39593;BME280;25286;48.870;9.084;2022-07-01T11:45:05;98396.44;;;16.21;nan
39593;BME280;25286;48.870;9.084;2022-07-01T11:47:31;98390.31;;;16.04;nan
39593;BME280;25286;48.870;9.084;2022-07-01T11:49:58;98398.72;;;16.44;nan
39593;BME280;25286;48.870;9.084;2022-07-01T11:52:25;98388.81;;;16.64;nan
39593;BME280;25286;48.870;9.084;2022-07-01T11:54:55;98400.84;;;16.12;nan
39593;BME280;25286;48.870;9.084;2022-07-01T11:57:25;98394.88;;;16.45;nan
39593;BME280;25286;48.870;9.084;2022-07-01T11:59:53;98401.53;;;16.55;nan
39593;BME280;25286;48.870;9.084;2022-07-01T12:02:21;98403.03;;;16.05;nan
39593;BME280;25286;48.870;9.084;2022-07-01T12:04:50;98398.19;;;16.63;nan
39593;BME280;25286;48.870;9.084;2022-07-01T12:07:19;98401.31;;;16.76;nan
39593;BME280;25286;48.870;9.084;2022-07-01T12:09:47;98395.50;;;17.09;nan
39593;BME280;25286;48.870;9.084;2022-07-01T12:12:18;98393.84;;;17.38;nan
39593;BME280;25286;48.870;9.084;2022-07-01T12:14:58;98402.72;;;16.84;nan
39593;BME280;25286;48.870;9.084;2022-07-01T12:17:25;98398.78;;;17.67;nan
39593;BME280;25286;48.870;9.084;2022-07-01T12:19:52;98393.84;;;17.38;nan
39593;BME280;25286;48.870;9.084;2022-07-01T12:22:20;98397.69;;;17.78;nan
39593;BME280;25286;48.870;9.084;2022-07-01T12:24:49;98404.13;;;16.92;nan
39593;BME280;25286;48.870;9.084;2022-07-01T12:27:15;98393.84;;;17.38;nan
39593;BME280;25286;48.870;9.084;2022-07-01T12:29:50;98399.94;;;16.94;nan
39593;BME280;25286;48.870;9.084;2022-07-01T12:32:26;98406.88;;;17.12;nan
39593;BME280;25286;48.870;9.084;2022-07-01T12:34:53;98398.28;;;16.98;nan
39593;BME280;25286;48.870;9.084;2022-07-01T12:37:25;98397.63;;;16.40;nan
39593;BME280;25286;48.870;9.084;2022-07-01T12:42:31;98391.34;;;17.26;nan
39593;BME280;25286;48.870;9.084;2022-07-01T12:45:04;98389.97;;;17.19;nan
39593;BME280;25286;48.870;9.084;2022-07-01T12:50:10;98394.28;;;17.96;nan
39593;BME280;25286;48.870;9.084;2022-07-01T12:52:41;98392.41;;;17.61;nan
39593;BME280;25286;48.870;9.084;2022-07-01T12:57:39;98391.22;;;17.98;nan
39593;BME280;25286;48.870;9.084;2022-07-01T13:00:05;98381.47;;;18.06;nan
39593;BME280;25286;48.870;9.084;2022-07-01T13:02:31;98377.13;;;17.69;nan
39593;BME280;25286;48.870;9.084;2022-07-01T13:04:56;98374.03;;;18.45;nan
39593;BME280;25286;48.870;9.084;2022-07-01T13:07:22;98372.97;;;17.66;nan
39593;BME280;25286;48.870;9.084;2022-07-01T13:09:48;98380.28;;;18.22;nan
39593;BME280;25286;48.870;9.084;2022-07-01T13:12:13;98384.06;;;18.46;nan
39593;BME280;25286;48.870;9.084;2022-07-01T13:14:39;98383.13;;;18.61;nan
39593;BME280;25286;48.870;9.084;2022-07-01T13:17:05;98375.03;;;18.70;nan
39593;BME280;25286;48.870;9.084;2022-07-01T13:19:30;98377.78;;;18.75;nan
39593;BME280;25286;48.870;9.084;2022-07-01T13:21:58;98377.56;;;18.61;nan
39593;BME280;25286;48.870;9.084;2022-07-01T13:24:24;98380.94;;;18.97;nan
39593;BME280;25286;48.870;9.084;2022-07-01T13:26:50;98374.63;;;18.87;nan
39593;BME280;25286;48.870;9.084;2022-07-01T13:29:15;98379.25;;;19.01;nan
39593;BME280;25286;48.870;9.084;2022-07-01T13:31:41;98382.34;;;18.50;nan
39593;BME280;25286;48.870;9.084;2022-07-01T13:34:06;98381.28;;;19.25;nan
39593;BME280;25286;48.870;9.084;2022-07-01T13:36:32;98380.91;;;19.32;nan
39593;BME280;25286;48.870;9.084;2022-07-01T13:38:58;98380.59;;;19.91;nan
39593;BME280;25286;48.870;9.084;2022-07-01T13:41:23;98382.00;;;19.65;nan
39593;BME280;25286;48.870;9.084;2022-07-01T13:43:49;98385.59;;;19.94;nan
39593;BME280;25286;48.870;9.084;2022-07-01T13:46:15;98389.19;;;19.71;nan
39593;BME280;25286;48.870;9.084;2022-07-01T13:48:41;98384.63;;;20.47;nan